Pescara - LIBP

Metar : METAR LIBP 200750Z VRB02KT CAVOK 29/18 Q1013=

Taf : TAF LIBP 200500Z 2006/2106 VRB05KT 9999 FEW040 BECMG 2008/2010 06010KT BECMG 2016/2018 VRB05KT=

 Scopri come leggere i bollettini codificati...


Storico

LIBP 200750Z VRB02KT CAVOK 29/18 Q1013
LIBP 200650Z 22004KT 190V260 CAVOK 27/17 Q1013
LIBP 200550Z 25004KT CAVOK 24/18 Q1013
LIBP 200450Z AUTO 22004KT 9999 NCD 21/18 Q1013
LIBP 200350Z AUTO 20005KT 9999 NCD 19/17 Q1013
LIBP 200250Z AUTO 22004KT 9999 NCD 20/18 Q1013
LIBP 200150Z AUTO 26003KT 210V350 9999 NCD 21/18 Q1013
LIBP 200050Z AUTO 24003KT 9999 NCD 21/18 Q1013
LIBP 192350Z AUTO 22004KT 9999 FEW087/// 22/18 Q1013
LIBP 192250Z AUTO 20005KT 9999 NCD 21/19 Q1013
LIBP 192150Z AUTO 22003KT 9999 NCD 23/20 Q1013
LIBP 192050Z VRB01KT CAVOK 24/20 Q1012
LIBP 191950Z 25002KT CAVOK 26/20 Q1012
LIBP 191850Z VRB02KT CAVOK 28/20 Q1012
LIBP 191750Z 19005KT CAVOK 30/17 Q1011
LIBP 191650Z 12005KT 090V160 9999 FEW100 31/17 Q1012
LIBP 191550Z 05006KT 9999 FEW100 31/19 Q1012
LIBP 191450Z 07007KT 050V120 CAVOK 30/21 Q1012
LIBP 191350Z 07010KT CAVOK 30/20 Q1012
LIBP 191250Z 06007KT 030V090 CAVOK 31/19 Q1012
LIBP 191150Z 07008KT CAVOK 31/19 Q1013
LIBP 191050Z 05008KT 030V090 CAVOK 31/19 Q1013
LIBP 190950Z 05008KT CAVOK 30/21 Q1013
LIBP 190850Z VRB01KT CAVOK 31/18 Q1013
LIBP 190750Z 23004KT 160V260 CAVOK 29/17 Q1013
LIBP 190650Z 23005KT 200V260 CAVOK 27/18 Q1013
LIBP 190550Z 23004KT CAVOK 24/17 Q1013
LIBP 190450Z AUTO 22004KT 9999 NCD 21/17 Q1013
LIBP 190350Z AUTO 21005KT 9999 NCD 19/16 Q1013
LIBP 190250Z AUTO 21005KT 9999 NCD 19/17 Q1013
LIBP 190150Z AUTO 23004KT 9999 NCD 20/17 Q1013
LIBP 190050Z AUTO 20005KT 9999 NCD 21/17 Q1013
LIBP 182350Z AUTO 21006KT 9999 BKN098/// 21/17 Q1013
LIBP 182250Z AUTO 24004KT 210V280 9999 FEW095/// SCT110/// 22/17 Q1013
LIBP 182150Z AUTO 22005KT 9999 SCT097/// 22/18 Q1013
LIBP 182050Z 25003KT CAVOK 24/18 Q1013
LIBP 181950Z 23003KT CAVOK 25/17 Q1013
LIBP 181850Z VRB02KT 9999 FEW090 28/17 Q1013
LIBP 181750Z 09003KT 9999 FEW090 30/16 Q1013
LIBP 181650Z 10004KT CAVOK 30/15 Q1013
LIBP 181550Z 07006KT CAVOK 31/17 Q1013
LIBP 181450Z 08006KT CAVOK 30/15 Q1013
LIBP 181350Z 07008KT CAVOK 30/15 Q1014
LIBP 181250Z 07008KT CAVOK 31/15 Q1014
LIBP 181150Z 06008KT 020V090 CAVOK 31/16 Q1014
LIBP 181050Z 04006KT 010V070 CAVOK 31/17 Q1014
LIBP 180950Z 03007KT 360V060 CAVOK 30/16 Q1014
LIBP 180850Z 24004KT 190V320 CAVOK 30/16 Q1014
LIBP 180750Z 22006KT CAVOK 28/19 Q1014
LIBP 180650Z 22006KT CAVOK 25/19 Q1014
LIBP 180550Z 23005KT CAVOK 22/18 Q1014
LIBP 180450Z AUTO 23006KT 9999 NCD 20/17 Q1014
LIBP 180150Z AUTO 24005KT 9999 NCD 19/18 Q1014
LIBP 180050Z AUTO 24006KT 9999 NCD 20/18 Q1014
LIBP 172350Z AUTO 24005KT 9999 NCD 20/19 Q1013
LIBP 172250Z AUTO 23005KT 9999 NCD 21/19 Q1014
LIBP 172150Z AUTO 22007KT 9999 NCD 21/20 Q1013
LIBP 172050Z AUTO 22005KT 9999 NCD 22/20 Q1013
LIBP 171950Z AUTO 25003KT 9999 NCD 23/20 Q1013
LIBP 171850Z AUTO 32002KT 9999 NCD 25/20 Q1012
LIBP 171750Z AUTO 28003KT 250V320 9999 NCD 26/19 Q1012
LIBP 171650Z AUTO 31003KT 250V360 9999 NCD 26/20 Q1011
LIBP 171550Z AUTO 31003KT 270V350 9999 FEW024/// BKN055/// 26/20 Q1011
LIBP 171450Z 03006KT 9999 FEW018 SCT060 25/20 Q1012
LIBP 171350Z 03008KT 350V060 9999 FEW025 26/20 Q1012
LIBP 171250Z 02010KT 340V060 9999 FEW025 26/20 Q1011
LIBP 171150Z 05008KT 010V100 9999 FEW025 27/20 Q1011
LIBP 171050Z 02006KT 320V080 9999 FEW025 27/19 Q1011
LIBP 170950Z VRB03KT 9999 FEW025 27/18 Q1010
LIBP 170850Z 22004KT 180V310 9999 FEW025 25/18 Q1010
LIBP 170750Z 23003KT 190V350 CAVOK 24/19 Q1010
LIBP 170650Z 21006KT 9999 FEW060 21/19 Q1010
LIBP 170550Z 22006KT 9999 FEW005 SCT060 20/20 Q1010
LIBP 170450Z AUTO 24006KT 9999 -RA BKN069/// OVC100/// 20/19 Q1010 RERA
LIBP 170350Z AUTO 23007KT 6000 +RA OVC072/// 20/19 Q1010
LIBP 170308Z AUTO 17003KT 130V200 9999 RA OVC064/// 21/19 Q1010
LIBP 170252Z AUTO VRB02KT 7000 +RA OVC066/// 21/19 Q1010
LIBP 170250Z AUTO VRB02KT 8000 RA OVC066/// 21/19 Q1010
LIBP 170219Z AUTO VRB02KT 9999 RA BKN075/// OVC110/// 21/19 Q1010
LIBP 170150Z AUTO 25004KT 150V310 9999 FEW067/// BKN097/// 21/19 Q1010 RESHRA
LIBP 170116Z AUTO 13004KT 9000 +RA OVC080/// 21/18 Q1010
LIBP 170052Z AUTO 14005KT 9999 RA OVC095/// 22/18 Q1011
LIBP 170050Z AUTO 13006KT 100V160 9999 -RA OVC095/// 22/18 Q1011
LIBP 162350Z AUTO VRB03KT 9999 -RA FEW066/// BKN100/// BKN140/// 21/19 Q1010
LIBP 162250Z AUTO 22004KT 9999 -RA FEW051/// BKN091/// OVC230/// 21/19 Q1011 RERA
LIBP 162215Z AUTO 22008KT 9999 RA OVC110/// 22/18 Q1013
LIBP 162150Z AUTO 30010KT 270V330 9999 -RA OVC094/// 23/17 Q1012 RESHRA
LIBP 162050Z 27003KT 210V340 9999 -SHRA VCTS FEW040CB SCT070 27/22 Q1010 RESHRA
LIBP 161950Z VRB02KT CAVOK 26/22 Q1008
LIBP 161850Z 31003KT 280V350 CAVOK 28/21 Q1008
LIBP 161750Z 13006KT CAVOK 30/20 Q1009
LIBP 161650Z 11006KT 070V130 CAVOK 29/22 Q1009

Informazioni elaborate utilizzando, tra l’altro, dati e prodotti del Servizio Meteorologico dell’Aeronautica Militare pubblicati sul sito www.meteoam.it e della National Oceanic and Atmospheric Administration (NOAA)

Ultimi caricamenti...


I-LUEL Sunrise Aviation Piper PA-30T-160

 


D-FELI Pilatus PC-6/B2-H4 Turbo

 


D-FELI Pilatus PC-6/B2-H4 Turbo

Questo sito non utilizza cookie di profilazione. Il sito utilizza cookie tecnici, di analisi anonima di prima parte e di terze parti per servizi di social network.